createdAt,value
2023-03-16T00:01:06.199Z,8.65
2023-03-16T00:03:38.238Z,8.98
2023-03-16T00:06:10.155Z,9.43
2023-03-16T00:08:43.244Z,8.65
2023-03-16T00:11:14.903Z,8.73
2023-03-16T00:13:47.856Z,8.77
2023-03-16T00:16:19.577Z,8.90
2023-03-16T00:18:51.300Z,9.13
2023-03-16T00:21:22.984Z,9.07
2023-03-16T00:23:54.655Z,9.23
2023-03-16T00:26:26.437Z,8.63
2023-03-16T00:28:58.321Z,9.27
2023-03-16T00:31:30.056Z,9.15
2023-03-16T00:34:04.679Z,9.25
2023-03-16T00:36:38.313Z,9.48
2023-03-16T00:39:11.850Z,9.48
2023-03-16T00:41:44.076Z,8.82
2023-03-16T00:44:16.863Z,8.45
2023-03-16T00:46:48.488Z,9.23
2023-03-16T00:49:22.461Z,8.73
2023-03-16T00:51:54.259Z,8.38
2023-03-16T00:54:27.124Z,8.80
2023-03-16T00:57:00.135Z,8.73
2023-03-16T00:59:32.130Z,9.05
2023-03-16T01:02:05.508Z,9.13
2023-03-16T01:04:38.079Z,9.02
2023-03-16T01:07:13.493Z,8.80
2023-03-16T01:09:45.601Z,8.80
2023-03-16T01:12:19.522Z,10.43
2023-03-16T01:14:51.233Z,8.73
2023-03-16T01:17:23.952Z,9.68
2023-03-16T01:19:55.653Z,10.27
2023-03-16T01:22:28.640Z,8.90
2023-03-16T01:25:00.327Z,10.07
2023-03-16T01:27:32.979Z,8.90
2023-03-16T01:30:06.352Z,8.43
2023-03-16T01:32:39.969Z,9.30
2023-03-16T01:35:12.704Z,9.07
2023-03-16T01:37:44.649Z,8.60
2023-03-16T01:40:22.246Z,8.15
2023-03-16T01:43:04.864Z,9.13
2023-03-16T01:46:06.087Z,9.30
2023-03-16T01:49:05.518Z,8.63
2023-03-16T01:51:50.857Z,9.63
2023-03-16T01:54:34.273Z,8.80
2023-03-16T01:57:10.457Z,8.85
2023-03-16T01:59:49.420Z,8.73
2023-03-16T02:02:24.126Z,8.73
2023-03-16T02:05:08.128Z,9.23
2023-03-16T02:07:46.447Z,8.45
2023-03-16T02:10:20.391Z,8.55
2023-03-16T02:12:53.471Z,8.90
2023-03-16T02:15:27.366Z,8.35
2023-03-16T02:18:00.263Z,8.73
2023-03-16T02:21:07.324Z,8.63
2023-03-16T02:23:39.108Z,7.70
2023-03-16T02:26:35.668Z,8.35
2023-03-16T02:29:40.393Z,8.45
2023-03-16T02:32:14.421Z,9.18
2023-03-16T02:34:46.285Z,8.65
2023-03-16T02:37:18.556Z,8.82
2023-03-16T02:39:52.359Z,7.93
2023-03-16T02:42:28.997Z,8.18
2023-03-16T02:45:05.340Z,8.57
2023-03-16T02:47:44.621Z,8.95
2023-03-16T02:50:17.229Z,8.38
2023-03-16T02:52:48.998Z,8.40
2023-03-16T02:55:21.795Z,8.63
2023-03-16T02:57:53.818Z,9.07
2023-03-16T03:00:26.098Z,8.50
2023-03-16T03:02:59.025Z,8.10
2023-03-16T03:05:30.988Z,8.30
2023-03-16T03:08:03.231Z,9.00
2023-03-16T03:10:35.059Z,8.40
2023-03-16T03:13:07.470Z,8.13
2023-03-16T03:15:40.135Z,8.38
2023-03-16T03:18:14.890Z,9.65
2023-03-16T03:20:46.599Z,8.55
2023-03-16T03:23:20.443Z,8.60
2023-03-16T03:25:52.112Z,8.87
2023-03-16T03:28:23.971Z,9.02
2023-03-16T03:30:57.170Z,8.65
2023-03-16T03:33:29.168Z,8.52
2023-03-16T03:36:03.026Z,8.18
2023-03-16T03:38:43.643Z,8.38
2023-03-16T03:41:15.472Z,7.82
2023-03-16T03:43:47.583Z,8.82
2023-03-16T03:46:22.582Z,8.40
2023-03-16T03:48:54.336Z,7.63
2023-03-16T03:51:26.032Z,7.90
2023-03-16T03:54:04.948Z,9.38
2023-03-16T03:56:45.680Z,8.13
2023-03-16T03:59:20.866Z,8.10
2023-03-16T04:02:04.586Z,7.32
2023-03-16T04:04:47.755Z,7.57
2023-03-16T04:07:20.319Z,7.32
2023-03-16T04:09:53.569Z,8.15
2023-03-16T04:12:40.217Z,7.68
2023-03-16T04:15:16.156Z,7.90
2023-03-16T04:18:13.006Z,7.65
2023-03-16T04:20:45.881Z,8.70
2023-03-16T04:23:22.340Z,7.95
2023-03-16T04:25:55.534Z,8.23
2023-03-16T04:28:27.874Z,8.10
2023-03-16T04:31:05.381Z,7.95
2023-03-16T04:33:42.416Z,7.38
2023-03-16T04:36:14.800Z,8.18
2023-03-16T04:38:47.808Z,8.32
2023-03-16T04:41:22.618Z,7.80
2023-03-16T04:44:07.887Z,8.35
2023-03-16T04:46:40.271Z,8.30
2023-03-16T04:49:14.620Z,8.60
2023-03-16T04:54:24.217Z,8.95
2023-03-16T04:56:55.902Z,9.05
2023-03-16T04:59:41.723Z,8.63
2023-03-16T05:02:35.499Z,8.85
2023-03-16T05:05:10.932Z,8.90
2023-03-16T05:07:46.541Z,8.50
2023-03-16T05:10:19.372Z,8.48
2023-03-16T05:12:52.159Z,8.63
2023-03-16T05:15:23.949Z,9.38
2023-03-16T05:18:03.898Z,9.88
2023-03-16T05:20:35.995Z,9.27
2023-03-16T05:23:09.262Z,8.95
2023-03-16T05:25:49.546Z,9.52
2023-03-16T05:28:23.742Z,9.68
2023-03-16T05:31:07.337Z,8.60
2023-03-16T05:33:49.751Z,9.57
2023-03-16T05:39:03.232Z,10.18
2023-03-16T05:41:41.708Z,9.38
2023-03-16T05:44:21.227Z,9.07
2023-03-16T05:47:19.858Z,10.27
2023-03-16T05:49:56.391Z,9.40
2023-03-16T05:52:35.692Z,8.75
2023-03-16T05:55:17.209Z,9.32
2023-03-16T05:57:52.270Z,8.98
2023-03-16T06:00:25.759Z,8.00
2023-03-16T06:03:08.031Z,8.20
2023-03-16T06:05:42.778Z,9.40
2023-03-16T06:08:17.403Z,8.88
2023-03-16T06:10:52.339Z,9.18
2023-03-16T06:13:25.409Z,9.02
2023-03-16T06:15:57.161Z,9.35
2023-03-16T06:18:35.509Z,8.90
2023-03-16T06:21:08.070Z,9.68
2023-03-16T06:23:40.863Z,8.90
2023-03-16T06:26:13.784Z,8.43
2023-03-16T06:28:48.877Z,8.45
2023-03-16T06:31:20.785Z,8.55
2023-03-16T06:33:52.853Z,8.35
2023-03-16T06:36:25.984Z,8.52
2023-03-16T06:39:01.300Z,8.40
2023-03-16T06:41:53.520Z,8.73
2023-03-16T06:44:28.761Z,9.90
2023-03-16T06:47:15.073Z,9.77
2023-03-16T06:49:47.075Z,9.43
2023-03-16T06:52:24.016Z,9.82
2023-03-16T06:54:58.232Z,8.98
2023-03-16T06:57:31.468Z,9.05
2023-03-16T07:00:04.651Z,8.07
2023-03-16T07:02:36.385Z,8.38
2023-03-16T07:05:13.399Z,8.70
2023-03-16T07:07:45.608Z,8.48
2023-03-16T07:10:18.425Z,10.10
2023-03-16T07:12:50.538Z,8.35
2023-03-16T07:15:25.647Z,8.50
2023-03-16T07:17:59.882Z,9.02
2023-03-16T07:20:33.058Z,8.65
2023-03-16T07:23:08.267Z,8.65
2023-03-16T07:25:40.661Z,8.95
2023-03-16T07:28:12.726Z,9.10
2023-03-16T07:33:40.755Z,8.20
2023-03-16T07:36:16.267Z,7.93
2023-03-16T07:38:57.491Z,7.70
2023-03-16T07:41:31.623Z,8.80
2023-03-16T07:44:18.659Z,8.32
2023-03-16T07:46:53.635Z,8.73
2023-03-16T07:49:29.344Z,9.27
2023-03-16T07:52:03.451Z,8.88
2023-03-16T07:54:43.407Z,8.70
2023-03-16T07:57:18.803Z,8.48
2023-03-16T07:59:50.563Z,9.10
2023-03-16T08:02:23.094Z,8.50
2023-03-16T08:04:55.646Z,8.57
2023-03-16T08:07:28.269Z,8.90
2023-03-16T08:10:12.277Z,8.27
2023-03-16T08:12:50.067Z,8.32
2023-03-16T08:15:22.392Z,8.10
2023-03-16T08:17:59.296Z,7.90
2023-03-16T08:20:32.286Z,8.15
2023-03-16T08:23:04.343Z,8.13
2023-03-16T08:25:43.309Z,8.32
2023-03-16T08:28:21.749Z,7.35
2023-03-16T08:30:55.720Z,8.05
2023-03-16T08:33:38.690Z,8.93
2023-03-16T08:36:13.847Z,8.00
2023-03-16T08:39:00.068Z,6.32
2023-03-16T08:41:38.138Z,6.20
2023-03-16T08:44:14.217Z,7.38
2023-03-16T08:46:47.398Z,6.15
2023-03-16T08:49:20.837Z,5.85
2023-03-16T08:52:00.802Z,6.13
2023-03-16T08:54:35.635Z,5.82
2023-03-16T08:57:07.727Z,5.80
2023-03-16T08:59:41.742Z,5.78
2023-03-16T09:02:14.822Z,6.18
2023-03-16T09:04:47.236Z,6.38
2023-03-16T09:07:20.546Z,6.10
2023-03-16T09:09:52.781Z,5.80
2023-03-16T09:12:25.051Z,5.57
2023-03-16T09:14:56.858Z,4.90
2023-03-16T09:17:28.648Z,6.38
2023-03-16T09:20:15.064Z,6.10
2023-03-16T09:22:52.210Z,5.70
2023-03-16T09:25:25.467Z,5.70
2023-03-16T09:27:57.299Z,5.60
2023-03-16T09:30:29.775Z,6.10
2023-03-16T09:33:04.926Z,6.70
2023-03-16T09:35:37.266Z,7.05
2023-03-16T09:38:10.194Z,6.78
2023-03-16T09:40:46.691Z,5.88
2023-03-16T09:43:32.305Z,5.22
2023-03-16T09:46:36.266Z,6.20
2023-03-16T09:49:12.306Z,6.03
2023-03-16T09:52:30.221Z,6.65
2023-03-16T09:55:15.312Z,7.00
2023-03-16T09:57:51.050Z,5.57
2023-03-16T10:00:27.956Z,5.45
2023-03-16T10:03:24.193Z,4.90
2023-03-16T10:06:02.260Z,4.60
2023-03-16T10:08:58.577Z,3.08
2023-03-16T10:11:42.777Z,2.00
2023-03-16T10:14:37.957Z,3.50
2023-03-16T10:19:58.972Z,2.97
2023-03-16T10:22:35.698Z,3.10
2023-03-16T10:25:16.459Z,2.75
2023-03-16T10:27:49.124Z,3.10
2023-03-16T10:30:32.486Z,2.97
2023-03-16T10:33:18.446Z,2.72
2023-03-16T10:36:12.595Z,2.88
2023-03-16T10:38:48.321Z,3.80
2023-03-16T10:41:22.739Z,3.25
2023-03-16T10:43:59.838Z,3.10
2023-03-16T10:46:39.416Z,3.20
2023-03-16T10:49:22.157Z,3.33
2023-03-16T10:51:57.215Z,3.03
2023-03-16T10:54:33.750Z,2.63
2023-03-16T10:57:21.011Z,2.80
2023-03-16T10:59:56.744Z,2.67
2023-03-16T11:02:33.396Z,2.33
2023-03-16T11:05:24.692Z,2.72
2023-03-16T11:08:12.023Z,2.72
2023-03-16T11:10:58.238Z,2.40
2023-03-16T11:13:37.695Z,2.53
2023-03-16T11:16:30.609Z,2.80
2023-03-16T11:19:23.677Z,2.55
2023-03-16T11:22:08.596Z,2.55
2023-03-16T11:24:52.548Z,2.08
2023-03-16T11:27:37.565Z,2.78
2023-03-16T11:30:09.776Z,2.47
2023-03-16T11:32:46.922Z,2.38
2023-03-16T11:35:22.515Z,2.85
2023-03-16T11:38:17.744Z,2.50
2023-03-16T11:40:56.072Z,2.30
2023-03-16T11:43:55.406Z,2.28
2023-03-16T11:46:55.586Z,2.00
2023-03-16T11:49:54.881Z,2.30
2023-03-16T11:52:50.247Z,2.88
2023-03-16T11:58:19.720Z,2.30
2023-03-16T12:01:13.264Z,2.40
2023-03-16T12:04:10.275Z,2.53
2023-03-16T12:06:47.972Z,2.33
2023-03-16T12:09:50.727Z,2.10
2023-03-16T12:12:40.570Z,2.70
2023-03-16T12:15:33.293Z,2.90
2023-03-16T12:18:16.736Z,2.35
2023-03-16T12:21:03.498Z,2.35
2023-03-16T12:23:40.821Z,2.55
2023-03-16T12:26:12.598Z,2.53
2023-03-16T12:28:45.122Z,2.72
2023-03-16T12:31:25.614Z,2.22
2023-03-16T12:34:03.085Z,2.95
2023-03-16T12:37:05.586Z,2.20
2023-03-16T12:39:55.363Z,2.60
2023-03-16T12:42:52.177Z,2.05
2023-03-16T12:46:00.926Z,2.33
2023-03-16T12:48:42.786Z,2.20
2023-03-16T12:51:14.613Z,1.75
2023-03-16T12:53:54.866Z,2.00
2023-03-16T12:56:36.471Z,2.45
2023-03-16T12:59:15.363Z,1.95
2023-03-16T13:02:13.057Z,2.75
2023-03-16T13:04:51.546Z,1.95
2023-03-16T13:07:26.377Z,2.20
2023-03-16T13:10:04.286Z,2.72
2023-03-16T13:12:38.214Z,2.83
2023-03-16T13:15:19.519Z,2.33
2023-03-16T13:18:06.615Z,2.20
2023-03-16T13:20:53.605Z,2.88
2023-03-16T13:23:27.560Z,2.58
2023-03-16T13:26:11.056Z,2.60
2023-03-16T13:28:46.095Z,2.67
2023-03-16T13:31:35.950Z,2.85
2023-03-16T13:34:14.775Z,2.60
2023-03-16T13:36:46.675Z,2.60
2023-03-16T13:39:22.318Z,2.85
2023-03-16T13:41:59.559Z,2.08
2023-03-16T13:44:32.549Z,2.30
2023-03-16T13:47:05.322Z,2.58
2023-03-16T13:49:56.905Z,2.92
2023-03-16T13:52:31.576Z,3.10
2023-03-16T13:57:40.841Z,2.90
2023-03-16T14:00:25.428Z,3.38
2023-03-16T14:02:59.200Z,2.42
2023-03-16T14:05:35.270Z,2.47
2023-03-16T14:08:22.597Z,3.60
2023-03-16T14:10:59.828Z,2.50
2023-03-16T14:13:36.263Z,2.53
2023-03-16T14:16:13.410Z,2.92
2023-03-16T14:18:52.651Z,2.10
2023-03-16T14:21:27.406Z,2.47
2023-03-16T14:26:46.616Z,2.33
2023-03-16T14:29:28.208Z,3.58
2023-03-16T14:32:00.259Z,2.20
2023-03-16T14:34:37.223Z,2.72
2023-03-16T14:37:11.849Z,2.50
2023-03-16T14:39:43.568Z,2.50
2023-03-16T14:42:25.989Z,2.05
2023-03-16T14:45:10.991Z,2.72
2023-03-16T14:47:46.458Z,2.53
2023-03-16T14:50:23.984Z,2.40
2023-03-16T14:52:57.271Z,2.30
2023-03-16T14:55:29.390Z,2.00
2023-03-16T14:58:01.777Z,2.33
2023-03-16T15:00:42.817Z,3.17
2023-03-16T15:03:33.220Z,2.30
2023-03-16T15:06:05.209Z,2.38
2023-03-16T15:08:44.316Z,2.42
2023-03-16T15:11:21.308Z,2.47
2023-03-16T15:13:53.833Z,2.20
2023-03-16T15:16:26.031Z,2.33
2023-03-16T15:18:57.788Z,2.42
2023-03-16T15:21:32.306Z,2.03
2023-03-16T15:24:04.067Z,2.47
2023-03-16T15:26:35.969Z,2.85
2023-03-16T15:29:13.654Z,2.30
2023-03-16T15:31:45.706Z,2.65
2023-03-16T15:34:17.481Z,2.55
2023-03-16T15:36:50.004Z,2.33
2023-03-16T15:39:24.913Z,2.03
2023-03-16T15:41:56.868Z,2.33
2023-03-16T15:44:31.709Z,2.30
2023-03-16T15:47:04.561Z,1.80
2023-03-16T15:49:47.164Z,1.90
2023-03-16T15:52:33.273Z,2.15
2023-03-16T15:55:09.424Z,2.40
2023-03-16T15:57:41.323Z,1.75
2023-03-16T16:00:37.452Z,1.88
2023-03-16T16:03:11.698Z,1.75
2023-03-16T16:05:43.394Z,1.58
2023-03-16T16:08:15.429Z,1.50
2023-03-16T16:10:48.758Z,2.25
2023-03-16T16:13:37.469Z,1.88
2023-03-16T16:16:16.073Z,1.95
2023-03-16T16:21:24.510Z,1.60
2023-03-16T16:23:56.847Z,2.03
2023-03-16T16:26:48.300Z,1.95
2023-03-16T16:29:22.609Z,1.92
2023-03-16T16:31:55.437Z,1.85
2023-03-16T16:34:28.024Z,2.35
2023-03-16T16:36:59.787Z,2.40
2023-03-16T16:39:31.468Z,2.30
2023-03-16T16:42:03.384Z,2.67
2023-03-16T16:44:37.623Z,2.28
2023-03-16T16:49:52.740Z,2.30
2023-03-16T16:52:24.546Z,2.63
2023-03-16T16:54:56.217Z,2.55
2023-03-16T16:57:27.910Z,2.80
2023-03-16T17:00:00.664Z,2.83
2023-03-16T17:02:43.390Z,2.83
2023-03-16T17:05:26.973Z,3.47
2023-03-16T17:08:04.080Z,2.65
2023-03-16T17:10:37.787Z,3.15
2023-03-16T17:13:26.360Z,3.40
2023-03-16T17:15:58.862Z,3.88
2023-03-16T17:18:30.660Z,2.97
2023-03-16T17:21:02.505Z,3.17
2023-03-16T17:23:37.234Z,3.13
2023-03-16T17:26:28.869Z,3.60
2023-03-16T17:29:05.325Z,4.03
2023-03-16T17:31:41.749Z,3.55
2023-03-16T17:34:23.214Z,4.60
2023-03-16T17:36:58.448Z,4.78
2023-03-16T17:39:36.453Z,4.45
2023-03-16T17:42:18.471Z,5.30
2023-03-16T17:44:52.415Z,4.30
2023-03-16T17:47:31.214Z,4.15
2023-03-16T17:50:02.959Z,4.40
2023-03-16T17:52:37.157Z,3.95
2023-03-16T17:55:09.123Z,4.85
2023-03-16T17:57:41.136Z,4.22
2023-03-16T18:00:23.439Z,3.80
2023-03-16T18:02:58.749Z,3.88
2023-03-16T18:05:35.536Z,3.97
2023-03-16T18:08:13.483Z,4.30
2023-03-16T18:10:46.842Z,4.57
2023-03-16T18:13:27.582Z,4.80
2023-03-16T18:16:02.894Z,4.57
2023-03-16T18:18:38.417Z,4.60
2023-03-16T18:21:21.741Z,4.70
2023-03-16T18:23:54.132Z,4.35
2023-03-16T18:26:27.527Z,5.28
2023-03-16T18:28:59.351Z,4.78
2023-03-16T18:31:31.172Z,5.05
2023-03-16T18:34:06.363Z,4.72
2023-03-16T18:36:43.072Z,5.45
2023-03-16T18:39:19.162Z,4.72
2023-03-16T18:41:51.094Z,4.20
2023-03-16T18:44:25.884Z,4.53
2023-03-16T18:49:35.842Z,4.68
2023-03-16T18:52:28.424Z,4.65
2023-03-16T18:55:00.159Z,4.60
2023-03-16T18:57:32.473Z,4.82
2023-03-16T19:00:04.693Z,4.60
2023-03-16T19:02:39.065Z,4.97
2023-03-16T19:05:15.638Z,4.88
2023-03-16T19:07:50.255Z,6.18
2023-03-16T19:10:25.978Z,5.05
2023-03-16T19:12:58.416Z,5.15
2023-03-16T19:15:34.501Z,5.68
2023-03-16T19:18:06.322Z,6.38
2023-03-16T19:20:38.827Z,5.43
2023-03-16T19:23:23.597Z,7.15
2023-03-16T19:25:56.057Z,4.25
2023-03-16T19:28:34.807Z,5.93
2023-03-16T19:31:16.669Z,5.50
2023-03-16T19:33:49.551Z,6.13
2023-03-16T19:36:32.276Z,5.65
2023-03-16T19:39:04.261Z,6.05
2023-03-16T19:41:37.812Z,6.97
2023-03-16T19:44:20.606Z,6.47
2023-03-16T19:46:52.623Z,6.18
2023-03-16T19:49:27.094Z,7.00
2023-03-16T19:51:58.800Z,6.28
2023-03-16T19:54:34.097Z,6.18
2023-03-16T19:57:14.303Z,6.70
2023-03-16T19:59:50.262Z,7.07
2023-03-16T20:02:34.701Z,6.22
2023-03-16T20:05:07.882Z,6.72
2023-03-16T20:07:39.569Z,6.63
2023-03-16T20:10:23.664Z,6.53
2023-03-16T20:13:00.614Z,6.55
2023-03-16T20:15:33.252Z,6.47
2023-03-16T20:18:13.232Z,7.22
2023-03-16T20:20:46.176Z,6.65
2023-03-16T20:23:26.582Z,7.38
2023-03-16T20:26:02.642Z,7.00
2023-03-16T20:28:36.969Z,6.80
2023-03-16T20:31:17.408Z,6.40
2023-03-16T20:33:50.737Z,6.47
2023-03-16T20:36:24.175Z,6.10
2023-03-16T20:38:56.057Z,7.72
2023-03-16T20:41:32.770Z,6.43
2023-03-16T20:44:05.003Z,6.90
2023-03-16T20:46:41.245Z,6.90
2023-03-16T20:49:22.607Z,6.50
2023-03-16T20:51:54.330Z,6.60
2023-03-16T20:54:26.120Z,6.07
2023-03-16T20:56:57.872Z,5.85
2023-03-16T20:59:30.426Z,7.07
2023-03-16T21:02:03.216Z,6.85
2023-03-16T21:04:34.914Z,6.80
2023-03-16T21:07:06.910Z,7.13
2023-03-16T21:09:38.556Z,7.03
2023-03-16T21:12:34.815Z,7.50
2023-03-16T21:15:29.280Z,6.65
2023-03-16T21:18:06.464Z,8.10
2023-03-16T21:20:38.216Z,7.20
2023-03-16T21:23:19.198Z,6.45
2023-03-16T21:25:56.787Z,7.50
2023-03-16T21:28:32.492Z,6.93
2023-03-16T21:31:05.237Z,6.28
2023-03-16T21:33:43.268Z,6.97
2023-03-16T21:36:18.170Z,6.65
2023-03-16T21:41:22.936Z,7.05
2023-03-16T21:43:55.020Z,7.25
2023-03-16T21:46:29.837Z,6.70
2023-03-16T21:49:03.662Z,6.55
2023-03-16T21:51:36.289Z,6.78
2023-03-16T21:54:13.531Z,6.43
2023-03-16T21:56:46.465Z,6.55
2023-03-16T21:59:18.162Z,6.55
2023-03-16T22:02:01.088Z,6.10
2023-03-16T22:04:33.689Z,6.55
2023-03-16T22:07:11.633Z,5.78
2023-03-16T22:09:43.408Z,6.38
2023-03-16T22:12:15.812Z,6.72
2023-03-16T22:14:48.345Z,9.18
2023-03-16T22:17:22.280Z,10.32
2023-03-16T22:19:54.072Z,8.47
2023-03-16T22:22:27.283Z,7.50
2023-03-16T22:24:58.950Z,7.55
2023-03-16T22:27:30.630Z,7.22
2023-03-16T22:30:03.423Z,7.63
2023-03-16T22:32:35.583Z,7.05
2023-03-16T22:35:13.919Z,7.03
2023-03-16T22:37:45.745Z,7.15
2023-03-16T22:40:18.985Z,7.05
2023-03-16T22:42:50.760Z,7.10
2023-03-16T22:45:25.018Z,7.25
2023-03-16T22:47:58.508Z,7.75
2023-03-16T22:50:35.209Z,7.53
2023-03-16T22:53:08.898Z,7.03
2023-03-16T22:55:40.723Z,7.07
2023-03-16T22:58:32.552Z,7.25
2023-03-16T23:01:21.731Z,6.80
2023-03-16T23:03:53.784Z,6.68
2023-03-16T23:06:31.483Z,6.13
2023-03-16T23:09:03.639Z,6.57
2023-03-16T23:11:36.461Z,6.57
2023-03-16T23:14:16.899Z,6.65
2023-03-16T23:16:49.354Z,5.95
2023-03-16T23:19:33.902Z,7.03
2023-03-16T23:22:07.225Z,7.20
2023-03-16T23:24:39.852Z,6.03
2023-03-16T23:27:21.415Z,6.78
2023-03-16T23:29:53.220Z,6.18
2023-03-16T23:32:24.888Z,6.85
2023-03-16T23:34:56.539Z,6.50
2023-03-16T23:37:28.312Z,6.15
2023-03-16T23:39:59.992Z,6.13
2023-03-16T23:42:31.715Z,6.47
2023-03-16T23:45:10.200Z,6.40
2023-03-16T23:47:42.132Z,6.45
2023-03-16T23:50:17.556Z,6.32
2023-03-16T23:52:49.287Z,6.85
2023-03-16T23:55:21.457Z,6.70
2023-03-16T23:57:53.166Z,6.63
